Time,TemperatureF,DewpointF,PressureIn,WindDirection,WindDirectionDegrees,WindSpeedMPH,WindSpeedGustMPH,Humidity,HourlyPrecipIn,Conditions,Clouds,dailyrainin,SoftwareType,DateUTC
2013-06-02 00:21:00,61.0,36.0,29.72,North,0,0.0,-999.0,40,0.00,,,-99.99,,2013-06-02 07:21:00,
2013-06-02 00:31:00,61.0,36.0,29.72,North,0,0.0,-999.0,40,0.00,,,-99.99,,2013-06-02 07:31:00,
2013-06-02 01:21:00,59.0,37.0,29.71,North,0,0.0,-999.0,43,0.00,,,-99.99,,2013-06-02 08:21:00,
2013-06-02 01:31:00,59.0,37.0,29.71,North,0,0.0,-999.0,43,0.00,,,-99.99,,2013-06-02 08:31:00,
2013-06-02 02:21:00,58.0,36.0,29.70,North,0,0.0,-999.0,43,0.00,,,-99.99,,2013-06-02 09:21:00,
2013-06-02 02:33:00,58.0,36.0,29.70,North,0,0.0,-999.0,43,0.00,,,-99.99,,2013-06-02 09:33:00,
2013-06-02 03:22:00,57.0,35.0,29.68,North,0,0.0,-999.0,43,0.00,,,-99.99,,2013-06-02 10:22:00,
2013-06-02 03:32:00,57.0,35.0,29.68,North,0,0.0,-999.0,43,0.00,,,-99.99,,2013-06-02 10:32:00,
2013-06-02 04:21:00,57.0,34.0,29.67,North,0,0.0,-999.0,42,0.00,,,-99.99,,2013-06-02 11:21:00,
2013-06-02 04:32:00,57.0,34.0,29.67,North,0,0.0,-999.0,42,0.00,,,-99.99,,2013-06-02 11:32:00,
2013-06-02 05:21:00,58.0,34.0,29.65,North,0,0.0,-999.0,41,0.00,,,-99.99,,2013-06-02 12:21:00,
2013-06-02 05:31:00,58.0,34.0,29.65,North,0,0.0,-999.0,41,0.00,,,-99.99,,2013-06-02 12:31:00,
2013-06-02 06:21:00,59.0,35.0,29.66,North,0,0.0,-999.0,40,0.00,,,-99.99,,2013-06-02 13:21:00,
2013-06-02 06:32:00,59.0,35.0,29.66,North,0,0.0,-999.0,40,0.00,,,-99.99,,2013-06-02 13:32:00,
2013-06-02 07:21:00,63.0,42.0,29.66,North,0,0.0,-999.0,46,0.00,,,-99.99,,2013-06-02 14:21:00,
2013-06-02 07:32:00,63.0,42.0,29.66,North,0,0.0,-999.0,46,0.00,,,-99.99,,2013-06-02 14:32:00,
2013-06-02 08:21:00,72.0,40.0,29.66,North,0,0.0,-999.0,31,0.00,,,-99.99,,2013-06-02 15:21:00,
2013-06-02 08:32:00,72.0,40.0,29.66,North,0,0.0,-999.0,31,0.00,,,-99.99,,2013-06-02 15:32:00,
2013-06-02 08:42:00,72.0,40.0,29.66,North,0,0.0,-999.0,31,0.00,,,-99.99,,2013-06-02 15:42:00,
2013-06-02 08:53:00,72.0,40.0,29.66,North,0,0.0,-999.0,31,0.00,,,-99.99,,2013-06-02 15:53:00,
2013-06-02 09:23:00,75.0,41.0,29.67,North,0,0.0,-999.0,29,0.00,,,-99.99,,2013-06-02 16:23:00,
2013-06-02 09:33:00,75.0,41.0,29.67,North,0,0.0,-999.0,29,0.00,,,-99.99,,2013-06-02 16:33:00,
2013-06-02 09:42:00,75.0,41.0,29.67,North,0,0.0,-999.0,29,0.00,,,-99.99,,2013-06-02 16:42:00,
2013-06-02 09:52:00,75.0,41.0,29.67,North,0,0.0,-999.0,29,0.00,,,-99.99,,2013-06-02 16:52:00,
2013-06-02 10:22:00,74.0,45.0,29.66,South,180,1.0,-999.0,36,0.00,,,-99.99,,2013-06-02 17:22:00,
2013-06-02 10:32:00,74.0,45.0,29.66,South,180,1.0,-999.0,36,0.00,,,-99.99,,2013-06-02 17:32:00,
2013-06-02 10:42:00,74.0,45.0,29.66,South,180,1.0,-999.0,36,0.00,,,-99.99,,2013-06-02 17:42:00,
2013-06-02 10:52:00,74.0,45.0,29.66,South,180,1.0,-999.0,36,0.00,,,-99.99,,2013-06-02 17:52:00,
2013-06-02 11:21:00,75.0,43.0,29.67,ESE,110,1.0,-999.0,32,0.00,,,-99.99,,2013-06-02 18:21:00,
2013-06-02 11:32:00,75.0,43.0,29.67,ESE,110,1.0,-999.0,32,0.00,,,-99.99,,2013-06-02 18:32:00,
2013-06-02 11:42:00,75.0,43.0,29.67,ESE,110,1.0,-999.0,32,0.00,,,-99.99,,2013-06-02 18:42:00,
2013-06-02 11:52:00,75.0,43.0,29.67,ESE,110,1.0,-999.0,32,0.00,,,-99.99,,2013-06-02 18:52:00,
2013-06-02 12:21:00,75.0,46.0,29.66,South,190,4.0,-999.0,36,0.00,,,-99.99,,2013-06-02 19:21:00,
2013-06-02 12:32:00,75.0,46.0,29.66,South,190,4.0,-999.0,36,0.00,,,-99.99,,2013-06-02 19:32:00,
2013-06-02 12:42:00,75.0,46.0,29.66,South,190,4.0,-999.0,36,0.00,,,-99.99,,2013-06-02 19:42:00,
2013-06-02 12:52:00,75.0,46.0,29.66,South,190,4.0,-999.0,36,0.00,,,-99.99,,2013-06-02 19:52:00,
2013-06-02 13:21:00,75.0,42.0,29.66,SSE,160,3.0,-999.0,31,0.00,,,-99.99,,2013-06-02 20:21:00,
2013-06-02 13:32:00,75.0,42.0,29.66,SSE,160,3.0,-999.0,31,0.00,,,-99.99,,2013-06-02 20:32:00,
2013-06-02 13:42:00,75.0,42.0,29.66,SSE,160,3.0,-999.0,31,0.00,,,-99.99,,2013-06-02 20:42:00,
2013-06-02 13:52:00,75.0,42.0,29.66,SSE,160,3.0,-999.0,31,0.00,,,-99.99,,2013-06-02 20:52:00,
2013-06-02 14:21:00,76.0,45.0,29.64,West,260,2.0,-999.0,33,0.00,,,-99.99,,2013-06-02 21:21:00,
2013-06-02 14:33:00,76.0,45.0,29.64,West,260,2.0,-999.0,33,0.00,,,-99.99,,2013-06-02 21:33:00,
2013-06-02 14:42:00,76.0,45.0,29.64,West,260,2.0,-999.0,33,0.00,,,-99.99,,2013-06-02 21:42:00,
2013-06-02 14:53:00,76.0,45.0,29.64,West,260,2.0,-999.0,33,0.00,,,-99.99,,2013-06-02 21:53:00,
2013-06-02 15:23:00,75.0,41.0,29.64,East,100,2.0,-999.0,30,0.00,,,-99.99,,2013-06-02 22:23:00,
2013-06-02 15:33:00,75.0,41.0,29.64,East,100,2.0,-999.0,30,0.00,,,-99.99,,2013-06-02 22:33:00,
2013-06-02 15:42:00,75.0,41.0,29.64,East,100,2.0,-999.0,30,0.00,,,-99.99,,2013-06-02 22:42:00,
2013-06-02 15:52:00,75.0,41.0,29.64,East,100,2.0,-999.0,30,0.00,,,-99.99,,2013-06-02 22:52:00,
2013-06-02 16:22:00,74.0,49.0,29.62,ESE,110,1.0,-999.0,42,0.00,,,-99.99,,2013-06-02 23:22:00,
2013-06-02 16:32:00,74.0,49.0,29.62,ESE,110,1.0,-999.0,42,0.00,,,-99.99,,2013-06-02 23:32:00,
2013-06-02 16:42:00,74.0,49.0,29.62,ESE,110,1.0,-999.0,42,0.00,,,-99.99,,2013-06-02 23:42:00,
2013-06-02 16:52:00,74.0,49.0,29.62,ESE,110,1.0,-999.0,42,0.00,,,-99.99,,2013-06-02 23:52:00,
2013-06-02 17:21:00,71.0,54.0,29.60,SSE,150,3.0,-999.0,54,0.00,,,-99.99,,2013-06-03 00:21:00,
2013-06-02 17:32:00,71.0,54.0,29.60,SSE,150,3.0,-999.0,54,0.00,,,-99.99,,2013-06-03 00:32:00,
2013-06-02 17:42:00,71.0,54.0,29.60,SSE,150,3.0,-999.0,54,0.00,,,-99.99,,2013-06-03 00:42:00,
2013-06-02 17:51:00,71.0,54.0,29.60,SSE,150,3.0,-999.0,54,0.00,,,-99.99,,2013-06-03 00:51:00,
2013-06-02 18:21:00,68.0,55.0,29.59,SSW,210,6.0,-999.0,63,0.00,,,-99.99,,2013-06-03 01:21:00,
2013-06-02 18:32:00,68.0,55.0,29.59,SSW,210,6.0,-999.0,63,0.00,,,-99.99,,2013-06-03 01:32:00,
2013-06-02 18:42:00,68.0,55.0,29.59,SSW,210,6.0,-999.0,63,0.00,,,-99.99,,2013-06-03 01:42:00,
2013-06-02 18:52:00,68.0,55.0,29.59,SSW,210,6.0,-999.0,63,0.00,,,-99.99,,2013-06-03 01:52:00,
2013-06-02 19:22:00,66.0,55.0,29.59,South,180,3.0,-999.0,67,0.00,,,-99.99,,2013-06-03 02:22:00,
2013-06-02 19:32:00,66.0,55.0,29.59,South,180,3.0,-999.0,67,0.00,,,-99.99,,2013-06-03 02:32:00,
2013-06-02 19:42:00,66.0,55.0,29.59,South,180,3.0,-999.0,67,0.00,,,-99.99,,2013-06-03 02:42:00,
2013-06-02 19:52:00,66.0,55.0,29.59,South,180,3.0,-999.0,67,0.00,,,-99.99,,2013-06-03 02:52:00,
2013-06-02 20:22:00,64.0,54.0,29.62,North,0,0.0,-999.0,71,0.00,,,-99.99,,2013-06-03 03:22:00,
2013-06-02 20:33:00,64.0,54.0,29.62,North,0,0.0,-999.0,71,0.00,,,-99.99,,2013-06-03 03:33:00,
2013-06-02 20:43:00,64.0,54.0,29.62,North,0,0.0,-999.0,71,0.00,,,-99.99,,2013-06-03 03:43:00,
2013-06-02 20:53:00,64.0,54.0,29.62,North,0,0.0,-999.0,71,0.00,,,-99.99,,2013-06-03 03:53:00,
2013-06-02 21:23:00,62.0,54.0,29.63,North,0,0.0,-999.0,74,0.00,,,-99.99,,2013-06-03 04:23:00,
2013-06-02 21:33:00,62.0,54.0,29.63,North,0,0.0,-999.0,74,0.00,,,-99.99,,2013-06-03 04:33:00,
2013-06-02 21:42:00,62.0,54.0,29.63,North,0,0.0,-999.0,74,0.00,,,-99.99,,2013-06-03 04:42:00,
2013-06-02 21:52:00,62.0,54.0,29.63,North,0,0.0,-999.0,74,0.00,,,-99.99,,2013-06-03 04:52:00,
2013-06-02 22:22:00,61.0,53.0,29.65,North,0,0.0,-999.0,76,0.00,,,-99.99,,2013-06-03 05:22:00,
2013-06-02 22:32:00,61.0,53.0,29.65,North,0,0.0,-999.0,76,0.00,,,-99.99,,2013-06-03 05:32:00,
2013-06-02 22:42:00,61.0,53.0,29.65,North,0,0.0,-999.0,76,0.00,,,-99.99,,2013-06-03 05:42:00,
2013-06-02 22:52:00,61.0,53.0,29.65,North,0,0.0,-999.0,76,0.00,,,-99.99,,2013-06-03 05:52:00,
2013-06-02 23:22:00,62.0,47.0,29.64,SSW,200,2.0,-999.0,59,0.00,,,-99.99,,2013-06-03 06:22:00,
2013-06-02 23:32:00,62.0,47.0,29.64,SSW,200,2.0,-999.0,59,0.00,,,-99.99,,2013-06-03 06:32:00,
2013-06-02 23:42:00,62.0,47.0,29.64,SSW,200,2.0,-999.0,59,0.00,,,-99.99,,2013-06-03 06:42:00,
2013-06-02 23:52:00,62.0,47.0,29.64,SSW,200,2.0,-999.0,59,0.00,,,-99.99,,2013-06-03 06:52:00,